sensor_id;sensor_type;location;lat;lon;timestamp;temperature;humidity
51801;DHT22;37855;53.204;6.568;2022-10-22T00:01:17;13.80;99.90
51801;DHT22;37855;53.204;6.568;2022-10-22T00:03:44;14.00;99.90
51801;DHT22;37855;53.204;6.568;2022-10-22T00:06:10;13.70;99.90
51801;DHT22;37855;53.204;6.568;2022-10-22T00:08:35;13.70;99.90
51801;DHT22;37855;53.204;6.568;2022-10-22T00:11:12;13.60;99.90
51801;DHT22;37855;53.204;6.568;2022-10-22T00:13:38;13.70;99.90
51801;DHT22;37855;53.204;6.568;2022-10-22T00:16:04;13.80;99.90
51801;DHT22;37855;53.204;6.568;2022-10-22T00:18:29;13.60;99.90
51801;DHT22;37855;53.204;6.568;2022-10-22T00:20:55;13.60;99.90
51801;DHT22;37855;53.204;6.568;2022-10-22T00:23:20;13.60;99.90
51801;DHT22;37855;53.204;6.568;2022-10-22T00:25:46;13.60;99.90
51801;DHT22;37855;53.204;6.568;2022-10-22T00:28:15;13.60;99.90
51801;DHT22;37855;53.204;6.568;2022-10-22T00:30:40;13.50;99.90
51801;DHT22;37855;53.204;6.568;2022-10-22T00:33:06;13.50;99.90
51801;DHT22;37855;53.204;6.568;2022-10-22T00:35:33;13.50;99.90
51801;DHT22;37855;53.204;6.568;2022-10-22T00:37:59;13.50;99.90
51801;DHT22;37855;53.204;6.568;2022-10-22T00:40:28;13.40;99.90
51801;DHT22;37855;53.204;6.568;2022-10-22T00:42:56;13.40;99.90
51801;DHT22;37855;53.204;6.568;2022-10-22T00:45:24;13.40;99.90
51801;DHT22;37855;53.204;6.568;2022-10-22T00:50:55;13.40;99.90
51801;DHT22;37855;53.204;6.568;2022-10-22T00:53:22;13.40;99.90
51801;DHT22;37855;53.204;6.568;2022-10-22T00:55:52;13.50;99.90
51801;DHT22;37855;53.204;6.568;2022-10-22T00:58:18;13.40;99.90
51801;DHT22;37855;53.204;6.568;2022-10-22T01:00:45;13.30;99.90
51801;DHT22;37855;53.204;6.568;2022-10-22T01:03:11;13.40;99.90
51801;DHT22;37855;53.204;6.568;2022-10-22T01:05:41;13.40;99.90
51801;DHT22;37855;53.204;6.568;2022-10-22T01:08:08;13.30;99.90
51801;DHT22;37855;53.204;6.568;2022-10-22T01:10:47;13.40;99.90
51801;DHT22;37855;53.204;6.568;2022-10-22T01:15:54;13.30;99.90
51801;DHT22;37855;53.204;6.568;2022-10-22T01:21:08;13.30;99.90
51801;DHT22;37855;53.204;6.568;2022-10-22T01:23:46;13.30;99.90
51801;DHT22;37855;53.204;6.568;2022-10-22T01:31:23;13.30;99.90
51801;DHT22;37855;53.204;6.568;2022-10-22T01:33:50;13.30;99.90
51801;DHT22;37855;53.204;6.568;2022-10-22T01:36:17;13.30;99.90
51801;DHT22;37855;53.204;6.568;2022-10-22T01:38:43;13.30;99.90
51801;DHT22;37855;53.204;6.568;2022-10-22T01:41:09;13.70;99.90
51801;DHT22;37855;53.204;6.568;2022-10-22T01:43:35;13.30;99.90
51801;DHT22;37855;53.204;6.568;2022-10-22T01:46:01;13.30;99.90
51801;DHT22;37855;53.204;6.568;2022-10-22T01:53:53;13.30;99.90
51801;DHT22;37855;53.204;6.568;2022-10-22T02:01:53;13.30;99.90
51801;DHT22;37855;53.204;6.568;2022-10-22T02:04:33;13.30;99.90
51801;DHT22;37855;53.204;6.568;2022-10-22T02:07:02;13.30;99.90
51801;DHT22;37855;53.204;6.568;2022-10-22T02:09:29;13.30;99.90
51801;DHT22;37855;53.204;6.568;2022-10-22T02:11:56;13.40;99.90
51801;DHT22;37855;53.204;6.568;2022-10-22T02:14:22;13.30;99.90
51801;DHT22;37855;53.204;6.568;2022-10-22T02:16:49;13.30;99.90
51801;DHT22;37855;53.204;6.568;2022-10-22T02:19:25;13.30;99.90
51801;DHT22;37855;53.204;6.568;2022-10-22T02:21:51;13.30;99.90
51801;DHT22;37855;53.204;6.568;2022-10-22T02:24:18;13.30;99.90
51801;DHT22;37855;53.204;6.568;2022-10-22T02:26:45;13.30;99.90
51801;DHT22;37855;53.204;6.568;2022-10-22T02:29:16;13.20;99.90
51801;DHT22;37855;53.204;6.568;2022-10-22T02:31:43;13.20;99.90
51801;DHT22;37855;53.204;6.568;2022-10-22T02:34:11;13.70;99.90
51801;DHT22;37855;53.204;6.568;2022-10-22T02:36:39;13.30;99.90
51801;DHT22;37855;53.204;6.568;2022-10-22T02:39:06;13.20;99.90
51801;DHT22;37855;53.204;6.568;2022-10-22T02:41:32;13.30;99.90
51801;DHT22;37855;53.204;6.568;2022-10-22T02:43:57;13.30;99.90
51801;DHT22;37855;53.204;6.568;2022-10-22T02:46:23;13.60;99.90
51801;DHT22;37855;53.204;6.568;2022-10-22T02:48:51;13.30;99.90
51801;DHT22;37855;53.204;6.568;2022-10-22T02:51:17;13.30;99.90
51801;DHT22;37855;53.204;6.568;2022-10-22T02:53:42;13.30;99.90
51801;DHT22;37855;53.204;6.568;2022-10-22T02:56:08;13.30;99.90
51801;DHT22;37855;53.204;6.568;2022-10-22T02:58:34;13.30;99.90
51801;DHT22;37855;53.204;6.568;2022-10-22T03:00:59;13.30;99.90
51801;DHT22;37855;53.204;6.568;2022-10-22T03:03:25;13.30;99.90
51801;DHT22;37855;53.204;6.568;2022-10-22T03:05:50;13.30;99.90
51801;DHT22;37855;53.204;6.568;2022-10-22T03:08:16;13.30;99.90
51801;DHT22;37855;53.204;6.568;2022-10-22T03:10:42;13.30;99.90
51801;DHT22;37855;53.204;6.568;2022-10-22T03:13:07;13.30;99.90
51801;DHT22;37855;53.204;6.568;2022-10-22T03:15:33;13.30;99.90
51801;DHT22;37855;53.204;6.568;2022-10-22T03:17:58;13.30;99.90
51801;DHT22;37855;53.204;6.568;2022-10-22T03:20:24;13.20;99.90
51801;DHT22;37855;53.204;6.568;2022-10-22T03:22:49;13.30;99.90
51801;DHT22;37855;53.204;6.568;2022-10-22T03:25:16;13.80;99.90
51801;DHT22;37855;53.204;6.568;2022-10-22T03:27:43;13.30;99.90
51801;DHT22;37855;53.204;6.568;2022-10-22T03:30:09;13.30;99.90
51801;DHT22;37855;53.204;6.568;2022-10-22T03:32:35;13.30;99.90
51801;DHT22;37855;53.204;6.568;2022-10-22T03:35:01;13.40;99.90
51801;DHT22;37855;53.204;6.568;2022-10-22T03:37:26;13.20;99.90
51801;DHT22;37855;53.204;6.568;2022-10-22T03:39:52;13.20;99.90
51801;DHT22;37855;53.204;6.568;2022-10-22T03:42:18;13.50;99.90
51801;DHT22;37855;53.204;6.568;2022-10-22T03:44:44;13.20;99.90
51801;DHT22;37855;53.204;6.568;2022-10-22T03:47:09;13.10;99.90
51801;DHT22;37855;53.204;6.568;2022-10-22T03:49:35;13.10;99.90
51801;DHT22;37855;53.204;6.568;2022-10-22T03:52:05;13.20;99.90
51801;DHT22;37855;53.204;6.568;2022-10-22T03:54:30;13.10;99.90
51801;DHT22;37855;53.204;6.568;2022-10-22T03:56:56;13.10;99.90
51801;DHT22;37855;53.204;6.568;2022-10-22T03:59:21;13.10;99.90
51801;DHT22;37855;53.204;6.568;2022-10-22T04:01:47;13.10;99.90
51801;DHT22;37855;53.204;6.568;2022-10-22T04:04:12;13.10;99.90
51801;DHT22;37855;53.204;6.568;2022-10-22T04:06:38;13.10;99.90
51801;DHT22;37855;53.204;6.568;2022-10-22T04:09:03;13.00;99.90
51801;DHT22;37855;53.204;6.568;2022-10-22T04:11:29;13.00;99.90
51801;DHT22;37855;53.204;6.568;2022-10-22T04:13:54;13.00;99.90
51801;DHT22;37855;53.204;6.568;2022-10-22T04:16:20;13.00;99.90
51801;DHT22;37855;53.204;6.568;2022-10-22T04:18:46;13.00;99.90
51801;DHT22;37855;53.204;6.568;2022-10-22T04:21:13;13.00;99.90
51801;DHT22;37855;53.204;6.568;2022-10-22T04:23:43;13.00;99.90
51801;DHT22;37855;53.204;6.568;2022-10-22T04:26:09;13.00;99.90
51801;DHT22;37855;53.204;6.568;2022-10-22T04:28:34;13.00;99.90
51801;DHT22;37855;53.204;6.568;2022-10-22T04:31:00;12.90;99.90
51801;DHT22;37855;53.204;6.568;2022-10-22T04:33:31;12.90;99.90
51801;DHT22;37855;53.204;6.568;2022-10-22T04:35:56;12.90;99.90
51801;DHT22;37855;53.204;6.568;2022-10-22T04:38:22;12.90;99.90
51801;DHT22;37855;53.204;6.568;2022-10-22T04:40:47;12.90;99.90
51801;DHT22;37855;53.204;6.568;2022-10-22T04:43:17;12.90;99.90
51801;DHT22;37855;53.204;6.568;2022-10-22T04:45:43;12.90;99.90
51801;DHT22;37855;53.204;6.568;2022-10-22T04:48:08;12.90;99.90
51801;DHT22;37855;53.204;6.568;2022-10-22T04:50:34;12.90;99.90
51801;DHT22;37855;53.204;6.568;2022-10-22T04:52:59;12.90;99.90
51801;DHT22;37855;53.204;6.568;2022-10-22T04:55:25;12.90;99.90
51801;DHT22;37855;53.204;6.568;2022-10-22T04:57:50;12.80;99.90
51801;DHT22;37855;53.204;6.568;2022-10-22T05:00:18;12.90;99.90
51801;DHT22;37855;53.204;6.568;2022-10-22T05:02:47;12.90;99.90
51801;DHT22;37855;53.204;6.568;2022-10-22T05:05:13;12.90;99.90
51801;DHT22;37855;53.204;6.568;2022-10-22T05:07:38;12.80;99.90
51801;DHT22;37855;53.204;6.568;2022-10-22T05:10:05;13.00;99.90
51801;DHT22;37855;53.204;6.568;2022-10-22T05:12:30;12.90;99.90
51801;DHT22;37855;53.204;6.568;2022-10-22T05:14:57;13.00;99.90
51801;DHT22;37855;53.204;6.568;2022-10-22T05:17:23;12.90;99.90
51801;DHT22;37855;53.204;6.568;2022-10-22T05:19:49;12.90;99.90
51801;DHT22;37855;53.204;6.568;2022-10-22T05:22:15;12.90;99.90
51801;DHT22;37855;53.204;6.568;2022-10-22T05:24:40;12.90;99.90
51801;DHT22;37855;53.204;6.568;2022-10-22T05:27:06;12.90;99.90
51801;DHT22;37855;53.204;6.568;2022-10-22T05:29:31;12.90;99.90
51801;DHT22;37855;53.204;6.568;2022-10-22T05:31:57;12.90;99.90
51801;DHT22;37855;53.204;6.568;2022-10-22T05:34:22;12.90;99.90
51801;DHT22;37855;53.204;6.568;2022-10-22T05:36:48;12.90;99.90
51801;DHT22;37855;53.204;6.568;2022-10-22T05:39:13;12.90;99.90
51801;DHT22;37855;53.204;6.568;2022-10-22T05:41:39;12.80;99.90
51801;DHT22;37855;53.204;6.568;2022-10-22T05:44:05;12.90;99.90
51801;DHT22;37855;53.204;6.568;2022-10-22T05:46:32;12.90;99.90
51801;DHT22;37855;53.204;6.568;2022-10-22T05:48:59;12.90;99.90
51801;DHT22;37855;53.204;6.568;2022-10-22T05:51:26;12.90;99.90
51801;DHT22;37855;53.204;6.568;2022-10-22T05:53:53;12.90;99.90
51801;DHT22;37855;53.204;6.568;2022-10-22T05:56:18;13.30;99.90
51801;DHT22;37855;53.204;6.568;2022-10-22T05:58:44;12.90;99.90
51801;DHT22;37855;53.204;6.568;2022-10-22T06:01:12;12.90;99.90
51801;DHT22;37855;53.204;6.568;2022-10-22T06:03:41;13.00;99.90
51801;DHT22;37855;53.204;6.568;2022-10-22T06:06:18;13.00;99.90
51801;DHT22;37855;53.204;6.568;2022-10-22T06:08:45;13.00;99.90
51801;DHT22;37855;53.204;6.568;2022-10-22T06:11:12;13.00;99.90
51801;DHT22;37855;53.204;6.568;2022-10-22T06:13:38;13.00;99.90
51801;DHT22;37855;53.204;6.568;2022-10-22T06:16:03;13.00;99.90
51801;DHT22;37855;53.204;6.568;2022-10-22T06:18:29;13.00;99.90
51801;DHT22;37855;53.204;6.568;2022-10-22T06:20:55;12.90;99.90
51801;DHT22;37855;53.204;6.568;2022-10-22T06:23:23;13.00;99.90
51801;DHT22;37855;53.204;6.568;2022-10-22T06:25:55;13.00;99.90
51801;DHT22;37855;53.204;6.568;2022-10-22T06:28:25;13.00;99.90
51801;DHT22;37855;53.204;6.568;2022-10-22T06:30:58;13.00;99.90
51801;DHT22;37855;53.204;6.568;2022-10-22T06:33:27;13.00;99.90
51801;DHT22;37855;53.204;6.568;2022-10-22T06:35:53;13.00;99.90
51801;DHT22;37855;53.204;6.568;2022-10-22T06:38:18;13.00;99.90
51801;DHT22;37855;53.204;6.568;2022-10-22T06:40:44;13.30;99.90
51801;DHT22;37855;53.204;6.568;2022-10-22T06:43:10;13.10;99.90
51801;DHT22;37855;53.204;6.568;2022-10-22T06:45:36;13.00;99.90
51801;DHT22;37855;53.204;6.568;2022-10-22T06:48:04;13.10;99.90
51801;DHT22;37855;53.204;6.568;2022-10-22T06:50:30;13.10;99.90
51801;DHT22;37855;53.204;6.568;2022-10-22T06:53:02;13.40;99.90
51801;DHT22;37855;53.204;6.568;2022-10-22T06:55:29;13.10;99.90
51801;DHT22;37855;53.204;6.568;2022-10-22T06:57:59;13.10;99.90
51801;DHT22;37855;53.204;6.568;2022-10-22T07:00:25;13.20;99.90
51801;DHT22;37855;53.204;6.568;2022-10-22T07:02:51;13.20;99.90
51801;DHT22;37855;53.204;6.568;2022-10-22T07:05:19;13.10;99.90
51801;DHT22;37855;53.204;6.568;2022-10-22T07:07:45;13.40;99.90
51801;DHT22;37855;53.204;6.568;2022-10-22T07:10:11;13.30;99.90
51801;DHT22;37855;53.204;6.568;2022-10-22T07:12:36;13.30;99.90
51801;DHT22;37855;53.204;6.568;2022-10-22T07:15:02;13.40;99.90
51801;DHT22;37855;53.204;6.568;2022-10-22T07:17:27;13.40;99.90
51801;DHT22;37855;53.204;6.568;2022-10-22T07:19:53;13.40;99.90
51801;DHT22;37855;53.204;6.568;2022-10-22T07:22:18;13.40;99.90
51801;DHT22;37855;53.204;6.568;2022-10-22T07:24:53;13.50;99.90
51801;DHT22;37855;53.204;6.568;2022-10-22T07:27:22;13.50;99.90
51801;DHT22;37855;53.204;6.568;2022-10-22T07:29:50;13.60;99.90
51801;DHT22;37855;53.204;6.568;2022-10-22T07:32:16;13.80;99.90
51801;DHT22;37855;53.204;6.568;2022-10-22T07:34:41;13.50;99.90
51801;DHT22;37855;53.204;6.568;2022-10-22T07:37:10;13.80;99.90
51801;DHT22;37855;53.204;6.568;2022-10-22T07:39:36;13.60;99.90
51801;DHT22;37855;53.204;6.568;2022-10-22T07:42:01;13.60;99.90
51801;DHT22;37855;53.204;6.568;2022-10-22T07:44:27;13.60;99.90
51801;DHT22;37855;53.204;6.568;2022-10-22T07:46:52;13.60;99.90
51801;DHT22;37855;53.204;6.568;2022-10-22T07:49:18;13.60;99.90
51801;DHT22;37855;53.204;6.568;2022-10-22T07:51:43;13.70;99.90
51801;DHT22;37855;53.204;6.568;2022-10-22T07:54:09;13.70;99.90
51801;DHT22;37855;53.204;6.568;2022-10-22T07:56:35;13.70;99.90
51801;DHT22;37855;53.204;6.568;2022-10-22T07:59:00;13.70;99.90
51801;DHT22;37855;53.204;6.568;2022-10-22T08:01:26;13.70;99.90
51801;DHT22;37855;53.204;6.568;2022-10-22T08:03:51;13.80;99.90
51801;DHT22;37855;53.204;6.568;2022-10-22T08:06:18;13.80;99.90
51801;DHT22;37855;53.204;6.568;2022-10-22T08:08:43;13.80;99.90
51801;DHT22;37855;53.204;6.568;2022-10-22T08:11:10;13.80;99.90
51801;DHT22;37855;53.204;6.568;2022-10-22T08:13:35;13.80;99.90
51801;DHT22;37855;53.204;6.568;2022-10-22T08:16:01;13.80;99.90
51801;DHT22;37855;53.204;6.568;2022-10-22T08:18:26;13.80;99.90
51801;DHT22;37855;53.204;6.568;2022-10-22T08:20:52;13.80;99.90
51801;DHT22;37855;53.204;6.568;2022-10-22T08:23:18;13.80;99.90
51801;DHT22;37855;53.204;6.568;2022-10-22T08:25:44;13.90;99.90
51801;DHT22;37855;53.204;6.568;2022-10-22T08:28:09;13.80;99.90
51801;DHT22;37855;53.204;6.568;2022-10-22T08:30:35;13.90;99.90
51801;DHT22;37855;53.204;6.568;2022-10-22T08:33:03;13.90;99.90
51801;DHT22;37855;53.204;6.568;2022-10-22T08:35:29;13.90;99.90
51801;DHT22;37855;53.204;6.568;2022-10-22T08:37:55;14.00;99.90
51801;DHT22;37855;53.204;6.568;2022-10-22T08:40:25;14.00;99.90
51801;DHT22;37855;53.204;6.568;2022-10-22T08:45:51;14.10;99.90
51801;DHT22;37855;53.204;6.568;2022-10-22T08:48:30;14.20;99.90
51801;DHT22;37855;53.204;6.568;2022-10-22T08:51:00;14.30;99.90
51801;DHT22;37855;53.204;6.568;2022-10-22T08:53:28;14.40;99.90
51801;DHT22;37855;53.204;6.568;2022-10-22T08:55:55;14.50;99.90
51801;DHT22;37855;53.204;6.568;2022-10-22T09:00:59;14.60;99.90
51801;DHT22;37855;53.204;6.568;2022-10-22T09:03:40;14.70;99.90
51801;DHT22;37855;53.204;6.568;2022-10-22T09:08:35;14.80;99.90
51801;DHT22;37855;53.204;6.568;2022-10-22T09:13:36;15.00;99.90
51801;DHT22;37855;53.204;6.568;2022-10-22T09:23:53;15.20;99.90
51801;DHT22;37855;53.204;6.568;2022-10-22T09:26:20;15.20;99.90
51801;DHT22;37855;53.204;6.568;2022-10-22T09:28:48;15.30;99.90
51801;DHT22;37855;53.204;6.568;2022-10-22T09:31:14;15.40;99.90
51801;DHT22;37855;53.204;6.568;2022-10-22T09:33:41;15.40;99.90
51801;DHT22;37855;53.204;6.568;2022-10-22T09:36:07;15.40;99.90
51801;DHT22;37855;53.204;6.568;2022-10-22T09:38:44;15.40;99.90
51801;DHT22;37855;53.204;6.568;2022-10-22T09:41:13;15.50;99.90
51801;DHT22;37855;53.204;6.568;2022-10-22T09:43:39;15.50;99.90
51801;DHT22;37855;53.204;6.568;2022-10-22T09:46:06;15.50;99.90
51801;DHT22;37855;53.204;6.568;2022-10-22T09:48:35;15.50;99.90
51801;DHT22;37855;53.204;6.568;2022-10-22T09:54:01;15.50;99.90
51801;DHT22;37855;53.204;6.568;2022-10-22T09:56:32;15.50;99.90
51801;DHT22;37855;53.204;6.568;2022-10-22T09:59:00;15.60;99.90
51801;DHT22;37855;53.204;6.568;2022-10-22T10:01:31;15.60;99.90
51801;DHT22;37855;53.204;6.568;2022-10-22T10:04:03;15.50;99.90
51801;DHT22;37855;53.204;6.568;2022-10-22T10:06:30;15.60;99.90
51801;DHT22;37855;53.204;6.568;2022-10-22T10:08:56;15.50;99.90
51801;DHT22;37855;53.204;6.568;2022-10-22T10:14:01;15.60;99.90
51801;DHT22;37855;53.204;6.568;2022-10-22T10:23:59;15.60;99.90
51801;DHT22;37855;53.204;6.568;2022-10-22T10:26:37;15.60;99.90
51801;DHT22;37855;53.204;6.568;2022-10-22T10:29:23;15.50;99.90
51801;DHT22;37855;53.204;6.568;2022-10-22T10:34:47;15.50;99.90
51801;DHT22;37855;53.204;6.568;2022-10-22T10:37:18;15.50;99.90
51801;DHT22;37855;53.204;6.568;2022-10-22T10:39:59;15.60;99.90
51801;DHT22;37855;53.204;6.568;2022-10-22T10:50:25;15.60;99.90
51801;DHT22;37855;53.204;6.568;2022-10-22T10:58:23;15.70;99.90
51801;DHT22;37855;53.204;6.568;2022-10-22T11:00:56;15.70;99.90
51801;DHT22;37855;53.204;6.568;2022-10-22T11:06:06;15.60;99.90
51801;DHT22;37855;53.204;6.568;2022-10-22T11:08:39;15.60;99.90
51801;DHT22;37855;53.204;6.568;2022-10-22T11:11:10;15.60;99.90
51801;DHT22;37855;53.204;6.568;2022-10-22T11:13:41;15.60;99.90
51801;DHT22;37855;53.204;6.568;2022-10-22T11:16:13;15.60;99.90
51801;DHT22;37855;53.204;6.568;2022-10-22T11:19:02;15.50;99.90
51801;DHT22;37855;53.204;6.568;2022-10-22T11:21:38;15.50;99.90
51801;DHT22;37855;53.204;6.568;2022-10-22T11:24:11;15.50;99.90
51801;DHT22;37855;53.204;6.568;2022-10-22T11:26:40;15.50;99.90
51801;DHT22;37855;53.204;6.568;2022-10-22T11:29:16;15.40;99.90
51801;DHT22;37855;53.204;6.568;2022-10-22T11:31:44;15.40;99.90
51801;DHT22;37855;53.204;6.568;2022-10-22T11:34:55;15.40;99.90
51801;DHT22;37855;53.204;6.568;2022-10-22T11:37:01;15.50;99.90
51801;DHT22;37855;53.204;6.568;2022-10-22T11:39:39;15.80;99.90
51801;DHT22;37855;53.204;6.568;2022-10-22T11:42:09;15.70;99.90
51801;DHT22;37855;53.204;6.568;2022-10-22T11:44:48;15.80;99.90
51801;DHT22;37855;53.204;6.568;2022-10-22T11:47:18;15.80;99.90
51801;DHT22;37855;53.204;6.568;2022-10-22T11:49:55;15.90;99.90
51801;DHT22;37855;53.204;6.568;2022-10-22T11:52:40;15.90;99.90
51801;DHT22;37855;53.204;6.568;2022-10-22T11:57:55;15.90;99.90
51801;DHT22;37855;53.204;6.568;2022-10-22T12:00:33;15.80;99.90
51801;DHT22;37855;53.204;6.568;2022-10-22T12:03:16;15.80;99.90
51801;DHT22;37855;53.204;6.568;2022-10-22T12:05:46;15.70;99.90
51801;DHT22;37855;53.204;6.568;2022-10-22T12:08:26;15.70;99.90
51801;DHT22;37855;53.204;6.568;2022-10-22T12:16:25;15.60;99.90
51801;DHT22;37855;53.204;6.568;2022-10-22T12:18:55;15.60;99.90
51801;DHT22;37855;53.204;6.568;2022-10-22T12:21:21;15.70;99.90
51801;DHT22;37855;53.204;6.568;2022-10-22T12:23:47;15.70;99.90
51801;DHT22;37855;53.204;6.568;2022-10-22T12:26:26;15.70;99.90
51801;DHT22;37855;53.204;6.568;2022-10-22T12:28:58;15.80;99.90
51801;DHT22;37855;53.204;6.568;2022-10-22T12:31:24;15.80;99.90
51801;DHT22;37855;53.204;6.568;2022-10-22T12:33:57;15.80;99.90
51801;DHT22;37855;53.204;6.568;2022-10-22T12:36:24;15.70;99.90
51801;DHT22;37855;53.204;6.568;2022-10-22T12:38:49;15.80;99.90
51801;DHT22;37855;53.204;6.568;2022-10-22T12:41:15;15.80;99.90
51801;DHT22;37855;53.204;6.568;2022-10-22T12:43:40;15.80;99.90
51801;DHT22;37855;53.204;6.568;2022-10-22T12:46:10;15.80;99.90
51801;DHT22;37855;53.204;6.568;2022-10-22T12:48:39;15.80;99.90
51801;DHT22;37855;53.204;6.568;2022-10-22T12:51:06;15.80;99.90
51801;DHT22;37855;53.204;6.568;2022-10-22T12:53:34;15.70;99.90
51801;DHT22;37855;53.204;6.568;2022-10-22T12:56:09;15.70;99.90
51801;DHT22;37855;53.204;6.568;2022-10-22T12:58:39;15.70;99.90
51801;DHT22;37855;53.204;6.568;2022-10-22T13:01:05;15.70;99.90
51801;DHT22;37855;53.204;6.568;2022-10-22T13:03:35;15.70;99.90
51801;DHT22;37855;53.204;6.568;2022-10-22T13:06:19;15.60;99.90
51801;DHT22;37855;53.204;6.568;2022-10-22T13:11:23;15.70;99.90
51801;DHT22;37855;53.204;6.568;2022-10-22T13:13:48;15.70;99.90
51801;DHT22;37855;53.204;6.568;2022-10-22T13:16:26;15.80;99.90
51801;DHT22;37855;53.204;6.568;2022-10-22T13:18:53;15.90;99.90
51801;DHT22;37855;53.204;6.568;2022-10-22T13:21:23;15.90;99.90
51801;DHT22;37855;53.204;6.568;2022-10-22T13:23:51;16.00;99.90
51801;DHT22;37855;53.204;6.568;2022-10-22T13:26:17;15.90;99.90
51801;DHT22;37855;53.204;6.568;2022-10-22T13:28:50;16.10;99.90
51801;DHT22;37855;53.204;6.568;2022-10-22T13:31:20;16.10;99.90
51801;DHT22;37855;53.204;6.568;2022-10-22T13:33:50;16.20;99.90
51801;DHT22;37855;53.204;6.568;2022-10-22T13:36:16;16.20;99.90
51801;DHT22;37855;53.204;6.568;2022-10-22T13:38:43;16.20;99.90
51801;DHT22;37855;53.204;6.568;2022-10-22T13:41:21;16.30;99.90
51801;DHT22;37855;53.204;6.568;2022-10-22T13:43:47;16.30;99.90
51801;DHT22;37855;53.204;6.568;2022-10-22T13:46:14;16.30;99.90
51801;DHT22;37855;53.204;6.568;2022-10-22T13:48:40;16.30;99.90
51801;DHT22;37855;53.204;6.568;2022-10-22T13:51:18;16.30;99.90
51801;DHT22;37855;53.204;6.568;2022-10-22T13:53:44;16.30;99.90
51801;DHT22;37855;53.204;6.568;2022-10-22T13:56:12;16.30;99.90
51801;DHT22;37855;53.204;6.568;2022-10-22T13:58:38;16.30;99.90
51801;DHT22;37855;53.204;6.568;2022-10-22T14:01:03;16.30;99.90
51801;DHT22;37855;53.204;6.568;2022-10-22T14:03:33;16.20;99.90
51801;DHT22;37855;53.204;6.568;2022-10-22T14:05:59;16.20;99.90
51801;DHT22;37855;53.204;6.568;2022-10-22T14:08:27;16.20;99.90
51801;DHT22;37855;53.204;6.568;2022-10-22T14:10:53;16.20;99.90
51801;DHT22;37855;53.204;6.568;2022-10-22T14:13:19;16.20;99.90
51801;DHT22;37855;53.204;6.568;2022-10-22T14:15:46;16.20;99.90
51801;DHT22;37855;53.204;6.568;2022-10-22T14:18:14;16.20;99.90
51801;DHT22;37855;53.204;6.568;2022-10-22T14:20:40;16.20;99.90
51801;DHT22;37855;53.204;6.568;2022-10-22T14:23:13;16.20;99.90
51801;DHT22;37855;53.204;6.568;2022-10-22T14:25:39;16.20;99.90
51801;DHT22;37855;53.204;6.568;2022-10-22T14:28:04;16.20;99.90
51801;DHT22;37855;53.204;6.568;2022-10-22T14:30:30;16.20;99.90
51801;DHT22;37855;53.204;6.568;2022-10-22T14:32:57;16.20;99.90
51801;DHT22;37855;53.204;6.568;2022-10-22T14:35:22;16.20;99.90
51801;DHT22;37855;53.204;6.568;2022-10-22T14:37:48;16.20;99.90
51801;DHT22;37855;53.204;6.568;2022-10-22T14:40:15;16.20;99.90
51801;DHT22;37855;53.204;6.568;2022-10-22T14:42:42;16.20;99.90
51801;DHT22;37855;53.204;6.568;2022-10-22T14:45:11;16.10;99.90
51801;DHT22;37855;53.204;6.568;2022-10-22T14:47:38;16.10;99.90
51801;DHT22;37855;53.204;6.568;2022-10-22T14:50:04;16.10;99.90
51801;DHT22;37855;53.204;6.568;2022-10-22T14:52:29;16.00;99.90
51801;DHT22;37855;53.204;6.568;2022-10-22T14:54:55;16.00;99.90
51801;DHT22;37855;53.204;6.568;2022-10-22T14:57:21;16.00;99.90
51801;DHT22;37855;53.204;6.568;2022-10-22T14:59:46;16.00;99.90
51801;DHT22;37855;53.204;6.568;2022-10-22T15:02:13;15.90;99.90
51801;DHT22;37855;53.204;6.568;2022-10-22T15:04:39;15.90;99.90
51801;DHT22;37855;53.204;6.568;2022-10-22T15:07:04;15.90;99.90
51801;DHT22;37855;53.204;6.568;2022-10-22T15:09:30;15.80;99.90
51801;DHT22;37855;53.204;6.568;2022-10-22T15:11:55;15.80;99.90
51801;DHT22;37855;53.204;6.568;2022-10-22T15:14:21;15.90;99.90
51801;DHT22;37855;53.204;6.568;2022-10-22T15:16:47;15.90;99.90
51801;DHT22;37855;53.204;6.568;2022-10-22T15:19:15;15.80;99.90
51801;DHT22;37855;53.204;6.568;2022-10-22T15:21:41;15.80;99.90
51801;DHT22;37855;53.204;6.568;2022-10-22T15:24:06;15.80;99.90
51801;DHT22;37855;53.204;6.568;2022-10-22T15:26:32;15.80;99.90
51801;DHT22;37855;53.204;6.568;2022-10-22T15:28:58;15.80;99.90
51801;DHT22;37855;53.204;6.568;2022-10-22T15:31:42;16.00;99.90
51801;DHT22;37855;53.204;6.568;2022-10-22T15:34:08;16.10;99.90
51801;DHT22;37855;53.204;6.568;2022-10-22T15:36:33;16.10;99.90
51801;DHT22;37855;53.204;6.568;2022-10-22T15:38:59;16.20;99.90
51801;DHT22;37855;53.204;6.568;2022-10-22T15:41:24;16.10;99.90
51801;DHT22;37855;53.204;6.568;2022-10-22T15:43:50;16.00;99.90
51801;DHT22;37855;53.204;6.568;2022-10-22T15:46:17;15.90;99.90
51801;DHT22;37855;53.204;6.568;2022-10-22T15:48:43;15.80;99.90
51801;DHT22;37855;53.204;6.568;2022-10-22T15:51:10;15.70;99.90
51801;DHT22;37855;53.204;6.568;2022-10-22T15:53:35;15.60;99.90
51801;DHT22;37855;53.204;6.568;2022-10-22T15:56:01;15.50;99.90
51801;DHT22;37855;53.204;6.568;2022-10-22T15:58:27;15.40;99.90
51801;DHT22;37855;53.204;6.568;2022-10-22T16:00:52;15.30;99.90
51801;DHT22;37855;53.204;6.568;2022-10-22T16:03:18;15.30;99.90
51801;DHT22;37855;53.204;6.568;2022-10-22T16:05:50;15.30;99.90
51801;DHT22;37855;53.204;6.568;2022-10-22T16:08:24;15.20;99.90
51801;DHT22;37855;53.204;6.568;2022-10-22T16:10:50;15.10;99.90
51801;DHT22;37855;53.204;6.568;2022-10-22T16:13:15;15.10;99.90
51801;DHT22;37855;53.204;6.568;2022-10-22T16:15:41;15.10;99.90
51801;DHT22;37855;53.204;6.568;2022-10-22T16:18:07;15.00;99.90
51801;DHT22;37855;53.204;6.568;2022-10-22T16:20:37;15.00;99.90
51801;DHT22;37855;53.204;6.568;2022-10-22T16:23:02;14.90;99.90
51801;DHT22;37855;53.204;6.568;2022-10-22T16:25:28;14.90;99.90
51801;DHT22;37855;53.204;6.568;2022-10-22T16:27:53;14.90;99.90
51801;DHT22;37855;53.204;6.568;2022-10-22T16:30:19;14.80;99.90
51801;DHT22;37855;53.204;6.568;2022-10-22T16:32:44;14.80;99.90
51801;DHT22;37855;53.204;6.568;2022-10-22T16:35:10;14.80;99.90
51801;DHT22;37855;53.204;6.568;2022-10-22T16:37:35;15.10;99.90
51801;DHT22;37855;53.204;6.568;2022-10-22T16:40:01;14.70;99.90
51801;DHT22;37855;53.204;6.568;2022-10-22T16:42:26;14.70;99.90
51801;DHT22;37855;53.204;6.568;2022-10-22T16:44:52;14.60;99.90
51801;DHT22;37855;53.204;6.568;2022-10-22T16:47:17;14.60;99.90
51801;DHT22;37855;53.204;6.568;2022-10-22T16:49:43;14.50;99.90
51801;DHT22;37855;53.204;6.568;2022-10-22T16:52:08;14.50;99.90
51801;DHT22;37855;53.204;6.568;2022-10-22T16:54:34;14.50;99.90
51801;DHT22;37855;53.204;6.568;2022-10-22T16:56:59;14.40;99.90
51801;DHT22;37855;53.204;6.568;2022-10-22T16:59:25;14.40;99.90